createdAt,value
2024-03-15T00:00:52.659Z,10.23
2024-03-15T00:03:19.322Z,10.10
2024-03-15T00:05:45.860Z,10.01
2024-03-15T00:08:12.362Z,9.87
2024-03-15T00:10:38.964Z,9.87
2024-03-15T00:13:05.674Z,9.89
2024-03-15T00:15:32.301Z,10.00
2024-03-15T00:17:59.559Z,9.99
2024-03-15T00:20:26.033Z,10.10
2024-03-15T00:22:52.549Z,10.06
2024-03-15T00:25:22.636Z,10.15
2024-03-15T00:27:49.845Z,10.22
2024-03-15T00:30:16.568Z,10.20
2024-03-15T00:32:43.636Z,10.12
2024-03-15T00:35:10.313Z,10.20
2024-03-15T00:37:37.048Z,10.18
2024-03-15T00:40:04.731Z,9.97
2024-03-15T00:42:31.335Z,9.88
2024-03-15T00:44:58.688Z,10.00
2024-03-15T00:47:25.255Z,9.94
2024-03-15T00:49:51.850Z,9.89
2024-03-15T00:52:18.885Z,9.85
2024-03-15T00:54:47.087Z,9.82
2024-03-15T00:57:13.858Z,9.74
2024-03-15T00:59:40.819Z,9.74
2024-03-15T01:02:07.301Z,9.57
2024-03-15T01:04:33.947Z,9.50
2024-03-15T01:07:00.385Z,9.50
2024-03-15T01:09:26.898Z,9.61
2024-03-15T01:11:53.408Z,9.56
2024-03-15T01:14:19.822Z,9.60
2024-03-15T01:16:47.648Z,9.58
2024-03-15T01:19:14.944Z,9.56
2024-03-15T01:21:41.530Z,9.51
2024-03-15T01:24:08.492Z,9.48
2024-03-15T01:26:36.499Z,9.38
2024-03-15T01:29:03.093Z,9.32
2024-03-15T01:31:29.532Z,9.27
2024-03-15T01:33:56.802Z,9.42
2024-03-15T01:36:23.604Z,9.40
2024-03-15T01:38:50.078Z,9.41
2024-03-15T01:41:16.522Z,9.32
2024-03-15T01:43:52.724Z,9.23
2024-03-15T01:46:19.213Z,9.08
2024-03-15T06:56:57.115Z,10.14
2024-03-15T06:59:24.614Z,10.20
2024-03-15T07:01:53.633Z,10.20
2024-03-15T07:04:20.737Z,10.24
2024-03-15T07:06:47.176Z,10.19
2024-03-15T07:09:16.297Z,10.30
2024-03-15T07:11:48.141Z,10.39
2024-03-15T07:14:14.733Z,10.38
2024-03-15T07:16:41.200Z,10.45
2024-03-15T07:19:08.106Z,10.57
2024-03-15T07:21:35.529Z,10.57
2024-03-15T07:24:02.001Z,10.69
2024-03-15T07:26:30.024Z,10.72
2024-03-15T07:28:57.273Z,10.79
2024-03-15T07:31:24.441Z,10.81
2024-03-15T07:33:51.034Z,10.87
2024-03-15T07:36:20.113Z,10.93
2024-03-15T07:38:49.101Z,10.98
2024-03-15T07:41:18.102Z,11.05
2024-03-15T07:43:44.972Z,11.10
2024-03-15T07:46:11.777Z,11.00
2024-03-15T07:48:38.855Z,11.11
2024-03-15T07:51:05.328Z,11.16
2024-03-15T07:53:31.743Z,11.19
2024-03-15T07:55:58.166Z,11.24
2024-03-15T07:58:26.772Z,11.32
2024-03-15T08:00:54.383Z,11.40
2024-03-15T08:03:20.893Z,11.45
2024-03-15T08:05:49.673Z,11.54
2024-03-15T08:08:17.305Z,11.60
2024-03-15T08:10:43.836Z,11.71
2024-03-15T08:13:12.767Z,11.78
2024-03-15T08:15:42.450Z,11.85
2024-03-15T08:18:09.218Z,11.88
2024-03-15T08:20:35.710Z,11.89
2024-03-15T08:23:10.150Z,11.89
2024-03-15T08:25:38.470Z,11.90
2024-03-15T08:28:05.185Z,12.10
2024-03-15T08:30:31.680Z,12.17
2024-03-15T08:32:58.256Z,12.34
2024-03-15T08:35:25.859Z,12.45
2024-03-15T08:37:52.400Z,12.59
2024-03-15T08:40:18.918Z,12.79
2024-03-15T08:42:46.823Z,12.91
2024-03-15T08:45:15.981Z,13.14
2024-03-15T08:47:51.253Z,13.20
2024-03-15T08:50:33.448Z,13.29
2024-03-15T08:53:00.700Z,13.24
2024-03-15T08:55:27.240Z,13.32
2024-03-15T08:57:53.923Z,13.40
2024-03-15T09:00:21.052Z,13.48
2024-03-15T09:02:47.521Z,13.54
2024-03-15T09:05:15.677Z,13.46
2024-03-15T09:07:42.426Z,13.42
2024-03-15T09:10:15.096Z,13.32
2024-03-15T09:12:42.766Z,13.20
2024-03-15T09:15:09.342Z,13.16
2024-03-15T09:17:38.141Z,13.09
2024-03-15T09:20:15.755Z,13.18
2024-03-15T09:22:42.373Z,13.27
2024-03-15T09:25:13.668Z,13.30
2024-03-15T09:27:41.415Z,13.21
2024-03-15T09:30:21.952Z,13.20
2024-03-15T09:32:52.304Z,13.20
2024-03-15T09:35:20.666Z,13.32
2024-03-15T09:37:53.110Z,13.27
2024-03-15T09:40:21.033Z,13.36
2024-03-15T09:42:50.153Z,13.35
2024-03-15T09:45:19.184Z,13.20
2024-03-15T09:47:52.376Z,13.23
2024-03-15T09:50:25.082Z,13.26
2024-03-15T09:52:56.545Z,13.48
2024-03-15T09:55:24.010Z,13.57
2024-03-15T09:57:51.832Z,13.67
2024-03-15T10:00:25.526Z,13.70
2024-03-15T10:02:54.177Z,13.74
2024-03-15T10:05:22.128Z,13.77
2024-03-15T10:07:51.126Z,13.87
2024-03-15T10:10:20.544Z,13.92
2024-03-15T10:12:54.065Z,14.05
2024-03-15T10:15:22.815Z,14.02
2024-03-15T10:17:54.691Z,13.98
2024-03-15T10:20:22.499Z,13.98
2024-03-15T10:22:52.235Z,14.02
2024-03-15T10:25:24.395Z,14.01
2024-03-15T10:27:56.437Z,14.10
2024-03-15T10:30:26.155Z,14.26
2024-03-15T10:32:55.019Z,14.33
2024-03-15T10:35:25.977Z,14.36
2024-03-15T10:37:56.133Z,14.35
2024-03-15T10:40:25.083Z,14.42
2024-03-15T10:42:54.933Z,14.35
2024-03-15T10:45:27.922Z,14.33
2024-03-15T10:47:55.753Z,14.34
2024-03-15T10:50:24.071Z,14.45
2024-03-15T10:52:53.824Z,14.65
2024-03-15T10:55:28.500Z,14.97
2024-03-15T10:58:01.003Z,15.40
2024-03-15T11:00:29.918Z,15.61
2024-03-15T11:03:10.541Z,15.49
2024-03-15T11:05:37.022Z,15.36
2024-03-15T11:08:03.911Z,15.34
2024-03-15T11:10:30.445Z,15.40
2024-03-15T11:13:00.637Z,15.30
2024-03-15T11:15:34.164Z,15.27
2024-03-15T11:18:04.291Z,15.16
2024-03-15T11:20:47.083Z,15.30
2024-03-15T11:23:14.495Z,15.55
2024-03-15T11:25:42.830Z,15.69
2024-03-15T11:28:09.898Z,15.74
2024-03-15T11:30:36.647Z,15.58
2024-03-15T11:33:03.478Z,15.56
2024-03-15T11:35:30.594Z,15.76
2024-03-15T11:37:57.402Z,15.87
2024-03-15T11:40:27.512Z,15.93
2024-03-15T11:43:02.532Z,16.18
2024-03-15T11:45:37.061Z,16.55
2024-03-15T11:48:17.406Z,16.92
2024-03-15T11:50:45.784Z,17.03
2024-03-15T11:53:16.932Z,16.69
2024-03-15T11:55:44.189Z,16.47
2024-03-15T11:58:25.211Z,16.39
2024-03-15T12:00:53.553Z,16.35
2024-03-15T12:03:25.491Z,16.30
2024-03-15T12:05:55.381Z,16.23
2024-03-15T12:08:23.338Z,16.11
2024-03-15T12:10:50.800Z,16.27
2024-03-15T12:13:22.077Z,16.30
2024-03-15T12:15:50.736Z,16.37
2024-03-15T12:18:19.243Z,16.28
2024-03-15T12:20:47.000Z,16.07
2024-03-15T12:23:15.983Z,15.91
2024-03-15T12:25:43.445Z,15.87
2024-03-15T12:28:18.578Z,15.86
2024-03-15T12:30:46.862Z,15.86
2024-03-15T12:33:14.411Z,15.84
2024-03-15T12:35:42.065Z,15.86
2024-03-15T12:38:19.333Z,15.81
2024-03-15T12:40:46.104Z,15.70
2024-03-15T12:43:13.048Z,15.68
2024-03-15T12:45:41.783Z,15.78
2024-03-15T12:48:10.159Z,15.76
2024-03-15T12:50:37.053Z,15.73
2024-03-15T12:53:06.875Z,15.60
2024-03-15T12:55:33.470Z,15.54
2024-03-15T12:58:00.212Z,15.66
2024-03-15T13:00:30.766Z,15.67
2024-03-15T13:02:57.986Z,15.71
2024-03-15T13:05:26.569Z,15.68
2024-03-15T13:07:53.460Z,15.83
2024-03-15T13:10:20.996Z,15.73
2024-03-15T13:12:52.837Z,15.74
2024-03-15T13:15:20.285Z,15.75
2024-03-15T13:17:50.372Z,15.86
2024-03-15T13:20:17.609Z,15.71
2024-03-15T13:22:45.265Z,15.71
2024-03-15T13:25:26.175Z,15.75
2024-03-15T13:28:00.442Z,15.80
2024-03-15T13:30:27.508Z,15.96
2024-03-15T13:32:58.317Z,15.87
2024-03-15T13:35:28.027Z,15.82
2024-03-15T13:37:54.577Z,15.76
2024-03-15T13:40:23.651Z,15.77
2024-03-15T13:42:51.904Z,15.69
2024-03-15T13:45:23.140Z,15.73
2024-03-15T13:48:33.657Z,15.72
2024-03-15T13:51:00.219Z,15.80
2024-03-15T13:53:26.774Z,15.92
2024-03-15T13:55:53.331Z,16.00
2024-03-15T13:58:19.827Z,16.06
2024-03-15T14:00:50.588Z,16.07
2024-03-15T14:03:17.591Z,16.12
2024-03-15T14:05:44.166Z,16.06
2024-03-15T14:08:16.297Z,16.08
2024-03-15T14:10:47.214Z,16.01
2024-03-15T14:13:19.400Z,15.94
2024-03-15T14:15:47.945Z,15.99
2024-03-15T14:18:15.258Z,16.02
2024-03-15T14:20:44.924Z,15.93
2024-03-15T14:23:12.019Z,15.96
2024-03-15T14:25:38.521Z,16.04
2024-03-15T14:28:07.563Z,15.91
2024-03-15T14:30:36.766Z,15.99
2024-03-15T14:33:04.915Z,15.92
2024-03-15T14:35:31.761Z,16.00
2024-03-15T14:37:59.240Z,16.06
2024-03-15T14:40:27.155Z,16.11
2024-03-15T14:42:56.910Z,16.16
2024-03-15T14:45:27.651Z,16.15
2024-03-15T14:48:04.133Z,15.94
2024-03-15T14:50:37.785Z,15.70
2024-03-15T14:53:05.683Z,15.62
2024-03-15T14:55:37.046Z,15.57
2024-03-15T14:58:05.414Z,15.53
2024-03-15T15:00:32.790Z,15.41
2024-03-15T15:02:59.943Z,15.41
2024-03-15T15:05:27.756Z,15.31
2024-03-15T15:07:56.698Z,15.21
2024-03-15T15:10:24.333Z,15.18
2024-03-15T15:12:50.815Z,15.15
2024-03-15T15:15:21.295Z,15.06
2024-03-15T15:17:50.721Z,15.20
2024-03-15T15:20:19.483Z,15.26
2024-03-15T15:22:48.282Z,15.38
2024-03-15T15:25:16.321Z,15.39
2024-03-15T15:27:44.444Z,15.25
2024-03-15T15:30:19.410Z,15.18
2024-03-15T15:32:48.873Z,15.05
2024-03-15T15:35:16.613Z,14.87
2024-03-15T15:37:43.864Z,14.80
2024-03-15T15:40:15.252Z,14.77
2024-03-15T15:42:42.529Z,14.78
2024-03-15T15:45:09.484Z,14.78
2024-03-15T15:47:36.249Z,14.70
2024-03-15T15:50:06.820Z,14.71
2024-03-15T15:52:36.400Z,14.65
2024-03-15T15:55:03.860Z,14.51
2024-03-15T15:57:30.593Z,14.44
2024-03-15T15:59:57.314Z,14.32
2024-03-15T16:02:23.785Z,14.19
2024-03-15T16:04:50.328Z,13.97
2024-03-15T16:07:17.959Z,13.85
2024-03-15T16:09:44.644Z,13.87
2024-03-15T16:12:12.391Z,13.78
2024-03-15T16:14:39.514Z,13.77
2024-03-15T16:17:06.724Z,13.73
2024-03-15T16:19:33.651Z,13.71
2024-03-15T16:22:00.330Z,13.76
2024-03-15T16:24:27.050Z,13.76
2024-03-15T16:26:53.503Z,13.74
2024-03-15T16:29:19.910Z,13.69
2024-03-15T16:31:46.353Z,13.61
2024-03-15T16:34:12.935Z,13.52
2024-03-15T16:36:39.503Z,13.44
2024-03-15T16:39:08.884Z,13.34
2024-03-15T16:41:37.060Z,13.33
2024-03-15T16:44:04.024Z,13.38
2024-03-15T16:46:30.562Z,13.36
2024-03-15T16:48:58.185Z,13.31
2024-03-15T16:51:24.868Z,13.31
2024-03-15T16:53:51.394Z,13.23
2024-03-15T16:56:17.830Z,13.21
2024-03-15T16:58:47.722Z,13.17
2024-03-15T17:01:14.886Z,13.12
2024-03-15T17:03:43.205Z,13.10
2024-03-15T17:06:10.656Z,13.03
2024-03-15T17:08:37.081Z,13.02
2024-03-15T17:11:05.285Z,12.95
2024-03-15T17:13:31.934Z,12.90
2024-03-15T17:15:59.831Z,12.92
2024-03-15T17:18:27.457Z,12.86
2024-03-15T17:20:54.009Z,12.82
2024-03-15T17:23:21.901Z,12.74
2024-03-15T17:25:50.786Z,11.80
2024-03-15T17:28:17.825Z,11.23
2024-03-15T17:30:47.650Z,10.87
2024-03-15T17:33:14.174Z,10.69
2024-03-15T17:35:41.158Z,10.50
2024-03-15T17:38:08.669Z,10.45
2024-03-15T17:40:35.217Z,10.37
2024-03-15T17:43:01.759Z,10.29
2024-03-15T17:45:31.007Z,10.38
2024-03-15T17:47:57.512Z,10.26
2024-03-15T17:50:28.756Z,10.16
2024-03-15T17:52:56.749Z,10.11
2024-03-15T17:55:23.543Z,10.03
2024-03-15T17:57:55.077Z,9.93
2024-03-15T18:00:26.353Z,9.91
2024-03-15T18:02:55.884Z,9.87
2024-03-15T18:05:22.422Z,9.89
2024-03-15T18:07:50.075Z,10.00
2024-03-15T18:10:18.616Z,9.98
2024-03-15T18:12:45.196Z,10.06
2024-03-15T18:15:11.700Z,10.12
2024-03-15T18:17:39.050Z,10.14
2024-03-15T18:20:06.471Z,10.10
2024-03-15T18:22:32.960Z,10.10
2024-03-15T18:24:59.521Z,10.06
2024-03-15T18:27:26.248Z,10.05
2024-03-15T18:29:52.888Z,10.04
2024-03-15T18:32:19.399Z,10.01
2024-03-15T18:34:47.278Z,9.99
2024-03-15T18:37:15.253Z,9.97
2024-03-15T18:39:44.161Z,9.92
2024-03-15T18:42:10.882Z,9.92
2024-03-15T18:44:37.440Z,9.93
2024-03-15T18:47:05.946Z,9.98
2024-03-15T18:49:33.311Z,10.00
2024-03-15T18:52:00.003Z,9.91
2024-03-15T18:54:26.556Z,9.91
2024-03-15T18:56:54.975Z,9.90
2024-03-15T18:59:27.737Z,9.83
2024-03-15T19:01:55.043Z,9.84
2024-03-15T19:04:21.714Z,9.91
2024-03-15T19:06:48.294Z,10.03
2024-03-15T19:09:15.541Z,9.97
2024-03-15T19:11:42.507Z,9.87
2024-03-15T19:14:09.253Z,9.87
2024-03-15T19:16:36.010Z,9.87
2024-03-15T19:19:02.519Z,9.79
2024-03-15T19:21:29.036Z,9.82
2024-03-15T19:23:55.573Z,9.81
2024-03-15T19:26:22.004Z,9.80
2024-03-15T19:28:49.679Z,9.89
2024-03-15T19:31:16.152Z,9.85
2024-03-15T19:33:42.647Z,9.80
2024-03-15T19:36:09.123Z,9.80
2024-03-15T19:38:35.731Z,9.72
2024-03-15T19:41:04.302Z,9.73
2024-03-15T19:43:32.248Z,9.68
2024-03-15T19:45:58.925Z,9.77
2024-03-15T19:48:27.490Z,9.69
2024-03-15T19:50:53.947Z,9.76
2024-03-15T19:53:20.402Z,9.83
2024-03-15T19:55:50.028Z,9.72
2024-03-15T19:58:19.398Z,9.69
2024-03-15T20:00:47.500Z,9.70
2024-03-15T20:03:14.026Z,9.69
2024-03-15T20:05:40.679Z,9.68
2024-03-15T20:08:07.295Z,9.55
2024-03-15T20:10:34.066Z,9.55
2024-03-15T20:13:00.713Z,9.56
2024-03-15T20:15:27.318Z,9.58
2024-03-15T20:17:56.907Z,9.65
2024-03-15T20:20:26.405Z,9.70
2024-03-15T20:22:56.230Z,9.68
2024-03-15T20:25:23.997Z,9.72
2024-03-15T20:27:50.675Z,9.56
2024-03-15T20:30:21.148Z,9.63
2024-03-15T20:32:51.716Z,9.65
2024-03-15T20:35:23.738Z,9.57
2024-03-15T20:37:50.349Z,9.66
2024-03-15T20:40:20.814Z,9.69
2024-03-15T20:42:50.284Z,9.65
2024-03-15T20:45:17.777Z,9.69
2024-03-15T20:47:44.285Z,9.67
2024-03-15T20:50:11.615Z,9.64
2024-03-15T20:52:38.277Z,9.66
2024-03-15T20:55:08.454Z,9.69
2024-03-15T20:57:36.806Z,9.63
2024-03-15T21:00:04.661Z,9.63
2024-03-15T21:02:31.304Z,9.63
2024-03-15T21:04:57.774Z,9.71
2024-03-15T21:07:25.495Z,9.63
2024-03-15T21:09:52.129Z,9.62
2024-03-15T21:12:18.707Z,9.64
2024-03-15T21:14:45.351Z,9.56
2024-03-15T21:17:11.886Z,9.60
2024-03-15T21:19:38.658Z,9.57
2024-03-15T21:22:05.533Z,9.54
2024-03-15T21:24:34.027Z,9.44
2024-03-15T21:27:00.660Z,9.48
2024-03-15T21:29:27.427Z,9.55
2024-03-15T21:31:54.047Z,9.47
2024-03-15T21:34:20.578Z,9.43
2024-03-15T21:36:47.651Z,9.45
2024-03-15T21:39:15.353Z,9.36
2024-03-15T21:41:42.246Z,9.38
2024-03-15T21:44:09.305Z,9.29
2024-03-15T21:46:36.542Z,9.26
2024-03-15T21:49:06.037Z,9.17
2024-03-15T21:51:33.205Z,9.14
2024-03-15T21:54:00.306Z,9.09
2024-03-15T21:56:27.092Z,9.16
2024-03-15T21:59:00.685Z,9.01
2024-03-15T22:03:57.731Z,9.06
2024-03-15T22:06:24.456Z,8.98
2024-03-15T22:08:50.997Z,9.05
2024-03-15T22:11:17.643Z,8.93
2024-03-15T22:13:44.622Z,8.76
2024-03-15T22:16:13.321Z,8.82
2024-03-15T22:18:41.276Z,8.82
2024-03-15T22:21:08.322Z,8.75
2024-03-15T22:23:34.796Z,8.74
2024-03-15T22:26:03.144Z,8.62
2024-03-15T22:28:29.953Z,8.62
2024-03-15T22:30:56.625Z,8.70
2024-03-15T22:33:23.300Z,8.71
2024-03-15T22:35:53.021Z,8.75
2024-03-15T22:38:19.731Z,8.82
2024-03-15T22:40:48.528Z,8.77
2024-03-15T22:43:15.379Z,8.68
2024-03-15T22:45:42.405Z,8.69
2024-03-15T22:48:09.109Z,8.77
2024-03-15T22:50:36.483Z,8.74
2024-03-15T22:53:06.747Z,8.76
2024-03-15T22:55:37.033Z,8.84
2024-03-15T22:58:04.209Z,8.83
2024-03-15T23:00:43.427Z,8.90
2024-03-15T23:03:10.953Z,8.98
2024-03-15T23:05:37.713Z,8.91
2024-03-15T23:08:04.615Z,8.93
2024-03-15T23:10:31.127Z,8.88
2024-03-15T23:13:00.319Z,8.95
2024-03-15T23:15:27.771Z,9.01
2024-03-15T23:17:55.857Z,9.04
2024-03-15T23:20:22.610Z,9.03
2024-03-15T23:22:50.162Z,9.10
2024-03-15T23:25:18.866Z,9.00
2024-03-15T23:27:46.954Z,9.04
2024-03-15T23:30:13.637Z,9.06
2024-03-15T23:32:40.418Z,9.14
2024-03-15T23:35:09.378Z,9.07
2024-03-15T23:37:36.023Z,9.16
2024-03-15T23:40:02.556Z,9.21
2024-03-15T23:42:29.351Z,9.22
2024-03-15T23:44:55.839Z,9.23
2024-03-15T23:47:23.864Z,9.27
2024-03-15T23:49:50.405Z,9.32
2024-03-15T23:52:17.767Z,9.33
2024-03-15T23:54:44.917Z,9.30
2024-03-15T23:57:11.440Z,9.41
2024-03-15T23:59:37.838Z,9.36
